Time;durP1;ratioP1;P1;durP2;ratioP2;P2;SDS_P1;SDS_P2;PMS_P1;PMS_P2;Temp;Humidity;BMP_temperature;BMP_pressure;BME280_temperature;BME280_humidity;BME280_pressure;Samples;Min_cycle;Max_cycle;Signal;HPM_P1;HPM_P2
2022/05/29 00:03:35;;;;;;;1.50;0.40;;;;;;;19.87;33.04;101802.63;16133671;19;130618;-47
2022/05/29 00:08:57;;;;;;;1.83;0.38;;;;;;;19.85;32.87;101808.41;16130543;19;130397;-43
2022/05/29 00:14:20;;;;;;;0.80;0.40;;;;;;;19.86;33.35;101800.94;16132522;19;130310;-44
2022/05/29 00:19:41;;;;;;;1.38;0.43;;;;;;;19.84;33.28;101795.59;16134067;19;130006;-46
2022/05/29 00:25:08;;;;;;;0.52;0.30;;;;;;;19.84;33.01;101795.59;16132233;19;129976;-44
2022/05/29 00:30:30;;;;;;;1.70;0.50;;;;;;;19.82;33.47;101781.94;16133021;19;130217;-43
2022/05/29 00:35:53;;;;;;;1.42;0.40;;;;;;;19.80;33.35;101783.28;16133447;19;130696;-42
2022/05/29 00:41:35;;;;;;;1.05;0.45;;;;;;;19.82;33.30;101781.09;16134838;19;129788;-43
2022/05/29 00:46:59;;;;;;;1.85;0.40;;;;;;;19.79;33.64;101770.47;16129710;19;129215;-43
2022/05/29 00:52:24;;;;;;;1.48;0.32;;;;;;;19.79;33.14;101764.91;16133952;19;129069;-46
2022/05/29 00:57:52;;;;;;;1.10;0.30;;;;;;;19.79;33.46;101764.91;16133009;19;129525;-44
2022/05/29 01:03:14;;;;;;;1.50;0.40;;;;;;;19.77;33.67;101755.97;16133423;19;129825;-44
2022/05/29 01:08:38;;;;;;;1.20;0.30;;;;;;;19.76;33.44;101749.56;16130290;19;130678;-43
2022/05/29 01:14:02;;;;;;;0.57;0.30;;;;;;;19.75;33.75;101747.88;16129839;19;129708;-44
2022/05/29 01:19:56;;;;;;;0.83;0.37;;;;;;;19.76;33.57;101737.63;16125831;19;130729;-41
2022/05/29 01:25:48;;;;;;;0.80;0.30;;;;;;;19.76;33.55;101732.91;16128660;19;129814;-41
2022/05/29 01:31:31;;;;;;;0.93;0.40;;;;;;;19.76;33.60;101732.06;16147196;19;130005;-47
2022/05/29 01:37:14;;;;;;;0.98;0.30;;;;;;;19.75;33.83;101741.47;16146103;19;130175;-47
2022/05/29 01:43:02;;;;;;;2.10;0.30;;;;;;;19.73;33.95;101726.97;16145684;19;131323;-42
2022/05/29 01:48:30;;;;;;;0.90;0.28;;;;;;;19.71;33.65;101718.03;16145632;19;129548;-44
2022/05/29 01:53:59;;;;;;;1.55;0.20;;;;;;;19.70;33.79;101714.41;16144601;19;130549;-44
2022/05/29 01:59:27;;;;;;;0.95;0.30;;;;;;;19.70;33.82;101706.09;16144883;19;129547;-45
2022/05/29 02:04:55;;;;;;;0.80;0.30;;;;;;;19.69;33.91;101702.44;16143650;19;129699;-41
2022/05/29 02:10:19;;;;;;;1.23;0.20;;;;;;;19.67;34.11;101707.41;16140948;19;130013;-41
2022/05/29 02:15:52;;;;;;;0.50;0.17;;;;;;;19.66;33.97;101714.03;16143817;19;129739;-42
2022/05/29 02:21:23;;;;;;;0.75;0.20;;;;;;;19.69;33.91;101709.94;16139889;19;129434;-45
2022/05/29 02:26:53;;;;;;;0.20;0.20;;;;;;;19.66;34.14;101707.63;16140391;19;129469;-44
2022/05/29 02:32:24;;;;;;;0.90;0.20;;;;;;;19.65;33.76;101704.03;16143618;19;129956;-43
2022/05/29 02:37:53;;;;;;;0.65;0.13;;;;;;;19.65;33.81;101692.91;16138635;19;129271;-40
2022/05/29 02:43:39;;;;;;;0.20;0.20;;;;;;;19.66;34.07;101697.38;16141352;19;129801;-41
2022/05/29 02:49:12;;;;;;;1.42;0.28;;;;;;;19.64;33.86;101690.34;16149638;19;129497;-45
2022/05/29 02:54:34;;;;;;;3.30;0.57;;;;;;;19.62;34.24;101687.00;16145964;19;130120;-44
2022/05/29 03:00:03;;;;;;;0.50;0.10;;;;;;;19.62;34.00;101689.78;16143612;19;129970;-44
2022/05/29 03:05:31;;;;;;;0.70;0.28;;;;;;;19.61;34.01;101680.56;16139677;19;129568;-52
2022/05/29 03:11:06;;;;;;;1.15;0.25;;;;;;;19.60;33.89;101678.88;16137635;19;130430;-48
2022/05/29 03:16:46;;;;;;;0.40;0.10;;;;;;;19.57;34.26;101673.78;16140230;19;130270;-51
2022/05/29 03:22:30;;;;;;;0.32;0.20;;;;;;;19.60;34.23;101678.06;16140775;19;131773;-51
2022/05/29 03:27:55;;;;;;;0.73;0.20;;;;;;;19.57;34.45;101668.25;16137090;19;130286;-50
2022/05/29 03:33:17;;;;;;;2.50;0.30;;;;;;;19.57;34.22;101672.97;16142607;19;130088;-49
2022/05/29 03:38:39;;;;;;;0.50;0.10;;;;;;;19.54;33.99;101660.41;16134787;19;129887;-51
2022/05/29 03:44:00;;;;;;;1.30;0.38;;;;;;;19.55;34.35;101658.47;16138070;19;129075;-49
2022/05/29 03:49:24;;;;;;;0.88;0.25;;;;;;;19.55;34.06;101655.69;16139978;19;129536;-47
2022/05/29 03:54:45;;;;;;;0.70;0.30;;;;;;;19.54;34.10;101657.63;16140302;19;130527;-51
2022/05/29 04:00:10;;;;;;;0.22;0.15;;;;;;;19.53;34.01;101653.16;16135374;19;128962;-46
2022/05/29 04:05:32;;;;;;;0.70;0.25;;;;;;;19.51;34.50;101644.22;16135462;19;129696;-51
2022/05/29 04:16:35;;;;;;;0.52;0.20;;;;;;;19.50;34.34;101635.06;16135172;19;130708;-50
2022/05/29 04:21:57;;;;;;;0.50;0.30;;;;;;;19.50;34.35;101632.28;16134803;19;129927;-52
2022/05/29 04:27:19;;;;;;;0.30;0.13;;;;;;;19.50;34.41;101634.19;16135147;19;130475;-52
2022/05/29 04:32:59;;;;;;;0.28;0.13;;;;;;;19.49;34.41;101627.81;16135980;19;130705;-50
2022/05/29 04:38:27;;;;;;;0.88;0.30;;;;;;;19.49;34.52;101627.81;16136021;19;130729;-52
2022/05/29 04:43:49;;;;;;;1.10;0.30;;;;;;;19.47;34.76;101624.41;16136543;19;129213;-52
2022/05/29 04:49:11;;;;;;;0.25;0.13;;;;;;;19.48;34.73;101626.13;16136564;19;130245;-52
2022/05/29 04:54:34;;;;;;;0.25;0.10;;;;;;;19.47;34.62;101615.22;16133969;19;129841;-49
2022/05/29 04:59:57;;;;;;;0.90;0.32;;;;;;;19.46;34.80;101616.31;16133826;19;129933;-49
2022/05/29 05:05:19;;;;;;;0.95;0.15;;;;;;;19.46;34.48;101613.53;16131681;19;130257;-47
2022/05/29 05:10:41;;;;;;;0.95;0.20;;;;;;;19.45;34.58;101609.06;16129130;19;129765;-52
2022/05/29 05:16:04;;;;;;;1.13;0.30;;;;;;;19.45;34.57;101609.06;16133364;19;132325;-51
2022/05/29 05:21:26;;;;;;;0.65;0.20;;;;;;;19.44;34.67;101612.94;16127606;19;130292;-52
2022/05/29 05:26:48;;;;;;;0.55;0.20;;;;;;;19.43;34.61;101606.53;16129064;19;129824;-50
2022/05/29 05:32:10;;;;;;;1.88;0.47;;;;;;;19.44;34.57;101601.84;16128568;19;129768;-49
2022/05/29 05:37:37;;;;;;;0.68;0.20;;;;;;;19.43;34.48;101606.53;16131584;19;129701;-52
2022/05/29 05:42:59;;;;;;;1.05;0.20;;;;;;;19.45;34.79;101603.50;16133038;19;132547;-49
2022/05/29 05:48:23;;;;;;;0.65;0.10;;;;;;;19.43;34.61;101601.00;16124704;19;129511;-50
2022/05/29 05:53:45;;;;;;;3.20;0.10;;;;;;;19.42;34.79;101601.25;16130966;19;130069;-51
2022/05/29 05:59:07;;;;;;;0.47;0.20;;;;;;;19.42;34.88;101604.84;16130771;19;130999;-49
2022/05/29 06:04:28;;;;;;;0.50;0.20;;;;;;;19.41;34.75;101611.47;16130299;19;130624;-52
2022/05/29 06:09:50;;;;;;;0.63;0.20;;;;;;;19.42;34.57;101621.50;16130730;19;130756;-50
2022/05/29 06:15:12;;;;;;;8.98;0.80;;;;;;;19.39;34.60;101621.94;16137903;19;132384;-51
2022/05/29 06:20:34;;;;;;;1.25;0.28;;;;;;;19.40;35.03;101622.81;16136170;19;132788;-44
2022/05/29 06:25:55;;;;;;;1.05;0.40;;;;;;;19.40;34.72;101609.78;16140962;19;130714;-48
2022/05/29 06:31:17;;;;;;;3.05;0.35;;;;;;;19.42;34.74;101613.16;16143634;19;130695;-43
2022/05/29 06:36:40;;;;;;;1.67;0.60;;;;;;;19.42;34.83;101615.09;16140249;19;131104;-45
2022/05/29 06:42:02;;;;;;;2.60;0.57;;;;;;;19.43;35.06;101620.41;16141734;19;130038;-43
2022/05/29 06:47:26;;;;;;;4.85;0.43;;;;;;;19.47;35.48;101618.00;16137859;19;129776;-43
2022/05/29 06:52:48;;;;;;;1.77;0.50;;;;;;;19.52;34.99;101620.94;16139411;19;130298;-41
2022/05/29 06:58:10;;;;;;;3.85;0.40;;;;;;;19.54;35.25;101621.56;16142064;19;129576;-41
2022/05/29 07:09:18;;;;;;;2.17;0.57;;;;;;;19.52;34.74;101621.78;16135819;19;130198;-43
2022/05/29 07:14:44;;;;;;;1.52;0.40;;;;;;;19.53;34.73;101628.19;16139414;19;131711;-45
2022/05/29 07:20:09;;;;;;;3.38;0.57;;;;;;;19.52;34.75;101619.00;16135643;19;129975;-42
2022/05/29 07:25:31;;;;;;;4.13;0.60;;;;;;;19.52;35.14;101612.59;16139475;19;130123;-43
2022/05/29 07:30:54;;;;;;;2.05;0.50;;;;;;;19.51;34.82;101605.38;16136715;19;129778;-43
2022/05/29 07:36:21;;;;;;;2.90;0.43;;;;;;;19.49;34.93;101602.84;16139543;19;129841;-42
2022/05/29 07:47:27;;;;;;;19.23;1.02;;;;;;;19.49;34.72;101607.53;16135300;19;129700;-43
2022/05/29 07:52:54;;;;;;;11.10;1.13;;;;;;;19.48;34.83;101603.06;16133897;19;130892;-44
2022/05/29 07:58:17;;;;;;;7.03;0.68;;;;;;;19.49;35.36;101607.53;16136819;19;129844;-39
2022/05/29 08:03:39;;;;;;;3.15;0.50;;;;;;;19.53;35.30;101606.81;16140383;19;129965;-42
2022/05/29 08:09:01;;;;;;;4.07;0.68;;;;;;;19.60;35.43;101592.84;16133142;19;129335;-45
2022/05/29 08:14:23;;;;;;;4.78;0.55;;;;;;;19.69;35.62;101594.19;16134458;19;132010;-41
2022/05/29 08:19:45;;;;;;;3.70;0.60;;;;;;;19.78;35.43;101596.63;16132201;19;130204;-44
2022/05/29 08:30:52;;;;;;;3.40;0.68;;;;;;;19.87;35.21;101592.44;16137880;19;129572;-45
2022/05/29 08:36:18;;;;;;;2.47;0.60;;;;;;;19.85;35.24;101589.03;16136618;19;130449;-47
2022/05/29 08:41:46;;;;;;;2.90;0.68;;;;;;;19.85;35.30;101586.25;16136981;19;129639;-43
2022/05/29 08:47:08;;;;;;;3.80;0.60;;;;;;;19.85;36.16;101586.25;16134986;19;129568;-44
2022/05/29 08:53:03;;;;;;;3.83;0.82;;;;;;;19.87;36.09;101578.53;16134648;19;129830;-42
2022/05/29 08:58:36;;;;;;;2.30;0.70;;;;;;;19.84;36.60;101570.69;16136032;19;131572;-50
2022/05/29 09:04:02;;;;;;;5.20;0.82;;;;;;;19.84;36.66;101567.91;16138776;19;128883;-43
2022/05/29 09:09:36;;;;;;;2.38;0.50;;;;;;;19.88;37.25;101560.78;16127602;19;130448;-43
2022/05/29 09:15:04;;;;;;;6.57;0.60;;;;;;;19.89;37.00;101565.28;16136251;19;130491;-45
2022/05/29 09:21:01;;;;;;;2.22;0.75;;;;;;;19.89;37.05;101558.84;16129239;19;131365;-45
2022/05/29 09:26:23;;;;;;;3.75;0.80;;;;;;;19.88;37.19;101551.63;16131384;19;129919;-47
2022/05/29 09:31:45;;;;;;;3.67;0.68;;;;;;;19.87;37.32;101556.31;16133539;19;129931;-46
2022/05/29 09:42:39;;;;;;;1.77;0.52;;;;;;;19.89;37.69;101540.28;16110209;19;131177;-46
2022/05/29 09:53:52;;;;;;;3.67;0.60;;;;;;;19.90;38.10;101533.63;16145304;19;129297;-46
2022/05/29 09:59:21;;;;;;;2.65;0.40;;;;;;;19.89;37.60;101531.09;16146845;19;129736;-42
2022/05/29 10:04:43;;;;;;;1.90;0.50;;;;;;;19.86;37.89;101526.03;16141182;19;129322;-43
2022/05/29 10:10:13;;;;;;;3.10;0.50;;;;;;;19.85;38.19;101522.41;16139585;19;130467;-41
2022/05/29 10:15:42;;;;;;;3.40;0.52;;;;;;;19.88;38.30;101529.44;16143747;19;129760;-43
2022/05/29 10:21:13;;;;;;;1.90;0.50;;;;;;;19.89;37.96;101519.97;16143756;19;129104;-43
2022/05/29 10:26:36;;;;;;;8.35;0.90;;;;;;;19.83;37.99;101530.97;16141833;19;130396;-42
2022/05/29 10:32:01;;;;;;;5.60;1.08;;;;;;;19.83;37.91;101527.34;16145394;19;129723;-43
2022/05/29 10:37:39;;;;;;;5.43;1.30;;;;;;;19.86;37.78;101531.59;16139108;19;129803;-42
2022/05/29 10:43:04;;;;;;;4.97;1.25;;;;;;;19.86;38.21;101531.59;16144672;19;129842;-44
2022/05/29 10:48:48;;;;;;;4.45;1.35;;;;;;;19.92;38.24;101525.91;16142013;19;131482;-43
2022/05/29 10:54:19;;;;;;;5.82;0.95;;;;;;;19.93;38.80;101529.53;16136423;19;130697;-42
2022/05/29 11:00:06;;;;;;;7.90;0.90;;;;;;;19.94;38.98;101520.94;16135655;19;129620;-43
2022/05/29 11:05:49;;;;;;;3.67;1.20;;;;;;;19.96;39.13;101504.06;16137593;19;129892;-43
2022/05/29 11:11:23;;;;;;;2.47;0.90;;;;;;;20.00;38.95;101496.94;16138321;19;130202;-43
2022/05/29 11:17:12;;;;;;;4.28;0.75;;;;;;;20.01;39.13;101489.47;16134895;19;131174;-42
2022/05/29 11:22:47;;;;;;;7.45;1.05;;;;;;;20.01;39.66;101489.47;16135441;19;129477;-42
2022/05/29 11:29:06;;;;;;;3.53;0.90;;;;;;;20.03;39.38;101484.53;16135731;19;130658;-46
2022/05/29 11:35:15;;;;;;;1.58;0.70;;;;;;;20.02;39.21;101488.41;16127305;19;129868;-43
2022/05/29 11:40:49;;;;;;;3.75;1.05;;;;;;;19.99;38.77;101482.22;16126854;19;129646;-43
2022/05/29 11:52:46;;;;;;;2.97;0.80;;;;;;;19.99;39.16;101464.72;16128573;19;130397;-42
2022/05/29 11:58:14;;;;;;;1.58;0.45;;;;;;;19.99;38.90;101454.47;16128150;19;129521;-40
2022/05/29 12:03:39;;;;;;;4.05;0.80;;;;;;;20.02;39.01;101449.50;16130688;19;130744;-41
2022/05/29 12:09:12;;;;;;;5.70;0.90;;;;;;;20.04;39.17;101441.78;16125273;19;130289;-42
2022/05/29 12:14:53;;;;;;;2.25;0.57;;;;;;;20.04;39.03;101444.56;16120528;19;129922;-41
2022/05/29 12:20:22;;;;;;;3.75;0.77;;;;;;;20.02;38.98;101447.56;16127533;19;129239;-42
2022/05/29 12:26:00;;;;;;;4.15;0.90;;;;;;;19.99;38.62;101448.91;16134544;19;129546;-40
2022/05/29 12:31:37;;;;;;;2.78;0.80;;;;;;;19.95;38.36;101447.66;16137145;19;129444;-44
2022/05/29 12:37:20;;;;;;;3.92;0.80;;;;;;;19.94;38.64;101453.47;16135697;19;130310;-44
2022/05/29 12:42:54;;;;;;;3.58;0.65;;;;;;;19.95;38.63;101447.66;16136290;19;129879;-40
2022/05/29 12:48:39;;;;;;;1.52;0.70;;;;;;;20.00;38.33;101441.41;16130492;19;129696;-41
2022/05/29 12:54:16;;;;;;;3.00;0.70;;;;;;;20.02;38.18;101441.19;16133288;19;129624;-40
2022/05/29 13:00:15;;;;;;;5.03;1.02;;;;;;;20.01;38.41;101445.88;16134757;19;129349;-41
2022/05/29 13:06:04;;;;;;;4.30;0.60;;;;;;;20.00;38.27;101444.19;16133235;19;129293;-42
2022/05/29 13:11:31;;;;;;;3.70;0.60;;;;;;;19.97;37.73;101461.31;16135194;19;129638;-43
2022/05/29 13:17:04;;;;;;;1.60;0.30;;;;;;;19.91;37.11;101462.28;16136755;19;129502;-42
2022/05/29 13:22:49;;;;;;;3.50;0.32;;;;;;;19.85;37.12;101466.88;16132901;19;129159;-40
2022/05/29 13:28:36;;;;;;;3.30;0.60;;;;;;;19.83;37.37;101474.59;16132148;19;130210;-40
2022/05/29 13:34:24;;;;;;;0.80;0.30;;;;;;;19.82;37.20;101470.97;16126682;19;129370;-42
2022/05/29 13:40:06;;;;;;;2.45;0.50;;;;;;;19.82;37.13;101470.13;16129864;19;130483;-42
2022/05/29 13:45:31;;;;;;;0.57;0.20;;;;;;;19.82;37.18;101470.97;16133607;19;130172;-44
2022/05/29 13:50:58;;;;;;;3.20;0.40;;;;;;;19.85;37.33;101464.09;16127985;19;131093;-45
2022/05/29 13:56:20;;;;;;;2.10;0.40;;;;;;;19.85;37.54;101464.09;16128500;19;130396;-43
2022/05/29 14:07:22;;;;;;;1.63;0.40;;;;;;;19.87;37.33;101449.97;16129049;19;129493;-42
2022/05/29 14:12:59;;;;;;;0.63;0.22;;;;;;;19.90;37.42;101458.66;16130681;19;129266;-42
2022/05/29 14:18:27;;;;;;;3.03;0.40;;;;;;;19.89;37.84;101450.56;16132437;19;129802;-43
2022/05/29 14:24:12;;;;;;;1.08;0.17;;;;;;;19.88;37.93;101454.44;16129092;19;129204;-42
2022/05/29 14:30:01;;;;;;;0.60;0.20;;;;;;;19.89;37.96;101443.09;16128231;19;129793;-43
2022/05/29 14:35:44;;;;;;;1.05;0.30;;;;;;;19.91;38.04;101432.59;16136369;19;129431;-39
2022/05/29 14:41:30;;;;;;;3.13;0.30;;;;;;;19.93;37.61;101427.66;16143098;19;130522;-42
2022/05/29 14:52:55;;;;;;;0.98;0.30;;;;;;;19.99;38.05;101409.16;16145257;19;129426;-41
2022/05/29 14:58:38;;;;;;;1.52;0.40;;;;;;;20.00;38.11;101405.28;16144967;19;129430;-42
2022/05/29 15:04:01;;;;;;;0.95;0.22;;;;;;;19.99;38.10;101404.47;16144797;19;129212;-44
2022/05/29 15:15:26;;;;;;;1.60;0.43;;;;;;;20.05;38.35;101385.97;16139508;19;129404;-43
2022/05/29 15:26:47;;;;;;;0.50;0.20;;;;;;;20.05;38.42;101376.81;16140758;19;129834;-40
2022/05/29 15:32:20;;;;;;;1.15;0.30;;;;;;;20.08;37.88;101376.31;16142431;19;128956;-49
2022/05/29 15:38:06;;;;;;;3.55;0.70;;;;;;;20.11;37.80;101368.34;16140335;19;131991;-45
2022/05/29 15:44:06;;;;;;;5.55;0.88;;;;;;;20.10;38.04;101371.34;16141877;19;128934;-50
2022/05/29 15:49:38;;;;;;;0.70;0.30;;;;;;;20.08;37.73;101370.75;16134961;19;130225;-52
2022/05/29 15:55:50;;;;;;;5.45;0.90;;;;;;;20.01;37.86;101364.50;16138009;19;128981;-49
2022/05/29 16:01:14;;;;;;;2.90;0.60;;;;;;;20.02;38.13;101353.13;16136916;19;130044;-47
2022/05/29 16:06:41;;;;;;;3.97;0.70;;;;;;;20.13;37.74;101352.25;16139525;19;129531;-49
2022/05/29 16:12:14;;;;;;;5.00;0.65;;;;;;;20.34;37.13;101343.50;16134624;19;129551;-49
2022/05/29 16:17:56;;;;;;;2.42;0.50;;;;;;;20.62;36.64;101339.84;16138821;19;131794;-47
2022/05/29 16:23:27;;;;;;;2.38;0.45;;;;;;;20.77;36.31;101328.22;16137955;19;129382;-48
2022/05/29 16:29:19;;;;;;;2.25;0.50;;;;;;;20.84;35.89;101342.78;16138383;19;130934;-47
2022/05/29 16:34:46;;;;;;;4.75;0.70;;;;;;;20.85;35.98;101341.69;16138333;19;130309;-47
2022/05/29 16:51:57;;;;;;;2.50;0.50;;;;;;;20.71;35.61;101340.28;16130604;19;130432;-48
2022/05/29 16:57:46;;;;;;;4.90;0.85;;;;;;;20.69;35.80;101340.56;16128283;19;129469;-48
2022/05/29 17:03:45;;;;;;;2.67;0.50;;;;;;;20.72;35.66;101333.63;16134914;19;129588;-50
2022/05/29 17:09:45;;;;;;;8.48;0.90;;;;;;;20.85;35.74;101333.34;16132929;19;130322;-48
2022/05/29 17:15:09;;;;;;;4.10;0.50;;;;;;;21.05;35.53;101343.13;16136225;19;130261;-45
2022/05/29 17:20:38;;;;;;;2.40;0.70;;;;;;;21.17;34.70;101341.09;16132551;19;128956;-45
2022/05/29 17:26:08;;;;;;;5.20;0.55;;;;;;;21.22;34.49;101338.41;16135617;19;128900;-51
2022/05/29 17:31:46;;;;;;;3.45;0.55;;;;;;;21.25;34.10;101342.63;16130327;19;129726;-51
2022/05/29 17:37:20;;;;;;;5.88;0.50;;;;;;;21.24;34.42;101337.31;16135396;19;129647;-49
2022/05/29 17:42:43;;;;;;;2.28;0.47;;;;;;;21.18;33.98;101347.53;16136058;19;129647;-48
2022/05/29 17:48:40;;;;;;;1.88;0.63;;;;;;;21.10;33.68;101346.00;16131244;19;132362;-51
2022/05/29 17:54:43;;;;;;;1.80;0.55;;;;;;;21.04;33.58;101349.81;16132596;19;129290;-45
2022/05/29 18:00:07;;;;;;;1.65;0.60;;;;;;;20.97;33.56;101349.13;16128796;19;130192;-50
2022/05/29 18:05:29;;;;;;;5.18;0.65;;;;;;;20.90;33.73;101341.78;16133373;19;133559;-45
2022/05/29 18:10:53;;;;;;;1.98;0.60;;;;;;;20.85;33.66;101347.25;16137820;19;130186;-46
2022/05/29 18:16:15;;;;;;;2.45;0.50;;;;;;;20.88;34.01;101340.34;16146284;19;129446;-49
2022/05/29 18:21:36;;;;;;;2.45;0.50;;;;;;;21.03;33.50;101354.50;16146435;19;129654;-48
2022/05/29 18:27:08;;;;;;;1.52;0.43;;;;;;;21.26;33.56;101344.31;16146810;19;129213;-49
2022/05/29 18:32:29;;;;;;;5.30;0.63;;;;;;;21.42;33.50;101341.75;16144964;19;129928;-48
2022/05/29 18:37:51;;;;;;;2.72;0.40;;;;;;;21.55;33.49;101347.00;16138771;19;132290;-46
2022/05/29 18:43:13;;;;;;;8.57;1.13;;;;;;;21.68;33.19;101348.56;16147420;19;130240;-46
2022/05/29 18:48:35;;;;;;;7.45;0.80;;;;;;;21.79;33.82;101344.81;16144380;19;129769;-50
2022/05/29 18:53:56;;;;;;;6.13;0.80;;;;;;;21.93;33.26;101342.50;16144485;19;129550;-48
2022/05/29 18:59:18;;;;;;;4.13;0.90;;;;;;;22.08;33.38;101343.81;16146780;19;129238;-47
2022/05/29 19:04:40;;;;;;;3.05;0.68;;;;;;;22.22;33.45;101344.28;16139503;19;130244;-49
2022/05/29 19:10:03;;;;;;;5.18;1.25;;;;;;;22.34;33.45;101342.19;16140011;19;130089;-46
2022/05/29 19:15:25;;;;;;;9.85;0.80;;;;;;;22.42;33.44;101324.97;16144540;19;129528;-50
2022/05/29 19:20:54;;;;;;;3.03;0.65;;;;;;;22.53;33.37;101327.88;16141697;19;130056;-50
2022/05/29 19:26:19;;;;;;;2.17;0.50;;;;;;;22.62;33.48;101325.44;16142843;19;131566;-47
2022/05/29 19:31:45;;;;;;;7.57;0.82;;;;;;;22.69;33.34;101335.28;16138499;19;129685;-47
2022/05/29 19:37:07;;;;;;;6.05;0.82;;;;;;;22.76;33.69;101343.44;16141523;19;130270;-47
2022/05/29 19:42:29;;;;;;;4.05;0.77;;;;;;;22.83;33.64;101340.44;16137851;19;129970;-48
2022/05/29 19:47:51;;;;;;;6.35;0.65;;;;;;;22.88;33.86;101335.75;16142303;19;132393;-49
2022/05/29 19:53:13;;;;;;;11.07;1.55;;;;;;;22.91;34.10;101345.56;16135748;19;129305;-50
2022/05/29 19:58:36;;;;;;;11.95;1.10;;;;;;;22.84;33.22;101339.34;16141728;19;129096;-47
2022/05/29 20:03:58;;;;;;;9.98;0.80;;;;;;;22.76;33.51;101340.66;16133457;19;130032;-48
2022/05/29 20:09:20;;;;;;;2.72;0.70;;;;;;;22.68;33.56;101350.34;16131848;19;129757;-46
2022/05/29 20:14:44;;;;;;;5.03;0.70;;;;;;;22.54;33.67;101357.44;16121502;19;130790;-51
2022/05/29 20:20:07;;;;;;;8.43;0.93;;;;;;;22.40;33.50;101345.88;16119514;19;130430;-46
2022/05/29 20:25:28;;;;;;;3.30;0.77;;;;;;;22.26;33.50;101348.22;16123627;19;129499;-50
2022/05/29 20:30:51;;;;;;;4.30;0.93;;;;;;;22.13;33.90;101350.28;16127245;19;129827;-46
2022/05/29 20:36:14;;;;;;;3.92;0.88;;;;;;;22.03;33.72;101352.91;16126311;19;130133;-47
2022/05/29 20:41:42;;;;;;;3.38;0.47;;;;;;;21.93;33.83;101352.78;16130368;19;131257;-47
2022/05/29 20:47:23;;;;;;;3.03;0.50;;;;;;;21.82;33.96;101347.09;16129717;19;129537;-49
2022/05/29 20:52:45;;;;;;;4.35;0.50;;;;;;;21.69;33.96;101344.69;16118774;19;130709;-47
2022/05/29 20:58:07;;;;;;;3.17;0.57;;;;;;;21.61;34.23;101350.69;16124232;19;130000;-46
2022/05/29 21:03:28;;;;;;;3.33;0.73;;;;;;;21.51;34.25;101345.81;16124651;19;129939;-49
2022/05/29 21:08:50;;;;;;;4.20;0.50;;;;;;;21.43;34.52;101343.44;16131265;19;129863;-47
2022/05/29 21:14:12;;;;;;;2.55;0.40;;;;;;;21.34;34.81;101346.69;16128227;19;130534;-45
2022/05/29 21:19:34;;;;;;;1.88;0.63;;;;;;;21.27;34.73;101345.16;16132022;19;129677;-50
2022/05/29 21:24:56;;;;;;;1.58;0.50;;;;;;;21.19;34.84;101340.88;16132394;19;129894;-45
2022/05/29 21:30:19;;;;;;;2.78;0.50;;;;;;;21.13;34.90;101339.94;16129063;19;130066;-45
2022/05/29 21:35:41;;;;;;;4.05;0.60;;;;;;;21.08;35.27;101339.00;16130154;19;130879;-45
2022/05/29 21:41:02;;;;;;;2.08;0.50;;;;;;;21.02;35.05;101340.88;16126104;19;130054;-46
2022/05/29 21:46:24;;;;;;;1.98;0.40;;;;;;;20.97;35.39;101332.44;16142223;19;129492;-48
2022/05/29 21:51:46;;;;;;;2.10;0.40;;;;;;;20.93;35.17;101334.00;16140507;19;129352;-46
2022/05/29 21:57:08;;;;;;;1.33;0.30;;;;;;;20.90;35.19;101335.38;16145259;19;129519;-49
2022/05/29 22:02:30;;;;;;;0.70;0.30;;;;;;;20.87;35.18;101338.66;16144177;19;130419;-45
2022/05/29 22:07:51;;;;;;;1.92;0.25;;;;;;;20.83;35.47;101338.31;16147243;19;129064;-46
2022/05/29 22:13:14;;;;;;;1.40;0.30;;;;;;;20.81;35.23;101334.09;16138834;19;129862;-45
2022/05/29 22:18:37;;;;;;;0.63;0.28;;;;;;;20.79;35.21;101328.81;16143991;19;129638;-45
2022/05/29 22:23:59;;;;;;;0.38;0.30;;;;;;;20.74;35.28;101331.47;16143791;19;129694;-45
2022/05/29 22:29:25;;;;;;;0.95;0.40;;;;;;;20.71;35.45;101332.81;16141968;19;130392;-50
2022/05/29 22:35:07;;;;;;;0.30;0.13;;;;;;;20.67;35.12;101331.63;16143373;19;130047;-46
2022/05/29 22:40:29;;;;;;;1.23;0.50;;;;;;;20.63;35.06;101335.97;16140666;19;130572;-45
2022/05/29 22:46:10;;;;;;;1.08;0.40;;;;;;;20.59;35.12;101335.63;16143716;19;130016;-48
2022/05/29 22:51:46;;;;;;;1.63;0.57;;;;;;;20.57;35.20;101328.66;16138935;19;129389;-47
2022/05/29 22:57:08;;;;;;;;;;;;;;;20.49;35.09;101318.78;16137562;19;129960;-45
2022/05/29 23:02:33;;;;;;;0.77;0.32;;;;;;;20.48;35.03;101328.22;16139993;19;130727;-45
2022/05/29 23:07:55;;;;;;;1.00;0.70;;;;;;;20.44;35.24;101333.44;16140066;19;129883;-45
2022/05/29 23:13:17;;;;;;;1.52;0.60;;;;;;;20.41;35.28;101327.53;16134483;19;130752;-48
2022/05/29 23:18:38;;;;;;;1.55;0.57;;;;;;;20.39;35.18;101327.75;16143460;19;129967;-46
2022/05/29 23:24:05;;;;;;;2.00;0.55;;;;;;;20.38;35.48;101322.47;16143550;19;130115;-49
2022/05/29 23:35:08;;;;;;;2.65;0.50;;;;;;;20.33;35.44;101314.88;16139128;19;129574;-46
2022/05/29 23:40:39;;;;;;;1.35;0.50;;;;;;;20.33;35.51;101305.69;16134986;19;129338;-47
2022/05/29 23:46:07;;;;;;;1.45;0.55;;;;;;;20.29;35.19;101297.00;16137704;19;130374;-45
2022/05/29 23:51:29;;;;;;;1.17;0.40;;;;;;;20.27;35.21;101293.63;16134615;19;129981;-45
2022/05/29 23:56:50;;;;;;;1.60;0.40;;;;;;;20.26;35.35;101301.13;16144964;19;130654;-46
